createdAt,value
2017-01-17T00:00:36.764Z,-1.7
2017-01-17T00:01:50.905Z,-1.69
2017-01-17T00:03:04.473Z,-1.68
2017-01-17T00:04:17.906Z,-1.67
2017-01-17T00:05:31.404Z,-1.68
2017-01-17T00:06:46.236Z,-1.64
2017-01-17T00:08:00.150Z,-1.63
2017-01-17T00:09:13.577Z,-1.64
2017-01-17T00:10:29.209Z,-1.62
2017-01-17T00:11:42.692Z,-1.61
2017-01-17T00:12:56.259Z,-1.61
2017-01-17T00:14:09.969Z,-1.6
2017-01-17T00:15:23.450Z,-1.62
2017-01-17T00:16:36.891Z,-1.63
2017-01-17T00:17:50.322Z,-1.62
2017-01-17T00:19:03.854Z,-1.61
2017-01-17T00:20:17.555Z,-1.6
2017-01-17T00:21:30.986Z,-1.58
2017-01-17T00:22:44.419Z,-1.56
2017-01-17T00:23:58.644Z,-1.52
2017-01-17T00:25:12.062Z,-1.51
2017-01-17T00:26:26.012Z,-1.5
2017-01-17T00:27:39.470Z,-1.49
2017-01-17T00:28:53.413Z,-1.5
2017-01-17T00:30:06.875Z,-1.48
2017-01-17T00:31:20.302Z,-1.46
2017-01-17T00:32:34.059Z,-1.44
2017-01-17T00:33:47.525Z,-1.39
2017-01-17T00:35:01.699Z,-1.38
2017-01-17T00:36:15.153Z,-1.39
2017-01-17T00:37:28.611Z,-1.38
2017-01-17T00:38:42.367Z,-1.38
2017-01-17T00:39:55.902Z,-1.37
2017-01-17T00:41:09.371Z,-1.38
2017-01-17T00:42:22.818Z,-1.37
2017-01-17T00:43:36.249Z,-1.39
2017-01-17T00:46:33.226Z,-1.28
2017-01-17T00:47:46.639Z,-1.18
2017-01-17T00:49:00.039Z,-1.09
2017-01-17T00:50:14.224Z,-1.04
2017-01-17T00:51:27.755Z,-1.05
2017-01-17T00:52:41.158Z,-1.04
2017-01-17T00:53:54.617Z,-1.04
2017-01-17T00:55:08.090Z,-1.04
2017-01-17T00:56:21.947Z,-1.06
2017-01-17T00:57:35.597Z,-1.08
2017-01-17T00:58:49.051Z,-1.13
2017-01-17T01:00:02.485Z,-1.15
2017-01-17T01:01:15.880Z,-1.16
2017-01-17T01:02:30.163Z,-1.17
2017-01-17T01:03:43.591Z,-1.14
2017-01-17T01:04:57.008Z,-1.13
2017-01-17T01:06:10.469Z,-1.12
2017-01-17T01:07:24.028Z,-1.1
2017-01-17T01:08:38.170Z,-1.12
2017-01-17T01:09:51.594Z,-1.16
2017-01-17T01:11:11.297Z,-1.18
2017-01-17T01:12:24.827Z,-1.17
2017-01-17T01:13:38.328Z,-1.17
2017-01-17T01:14:52.079Z,-1.16
2017-01-17T01:16:05.571Z,-1.13
2017-01-17T01:17:19.084Z,-1.07
2017-01-17T01:18:32.513Z,-1.04
2017-01-17T01:19:45.923Z,-1.01
2017-01-17T01:20:59.653Z,-0.98
2017-01-17T01:22:13.110Z,-0.98
2017-01-17T01:23:26.636Z,-0.96
2017-01-17T01:24:40.540Z,-0.93
2017-01-17T01:25:53.952Z,-0.94
2017-01-17T01:27:09.903Z,-0.94
2017-01-17T01:28:23.410Z,-0.95
2017-01-17T01:29:37.240Z,-0.93
2017-01-17T01:30:50.682Z,-0.9
2017-01-17T01:32:04.087Z,-0.88
2017-01-17T01:33:18.314Z,-0.87
2017-01-17T01:34:31.762Z,-0.86
2017-01-17T01:35:45.228Z,-0.84
2017-01-17T01:36:58.658Z,-0.84
2017-01-17T01:38:12.080Z,-0.82
2017-01-17T01:39:25.896Z,-0.82
2017-01-17T01:40:39.329Z,-0.81
2017-01-17T01:41:52.756Z,-0.8
2017-01-17T01:43:06.629Z,-0.79
2017-01-17T01:44:20.155Z,-0.75
2017-01-17T01:45:33.928Z,-0.74
2017-01-17T01:46:47.343Z,-0.73
2017-01-17T01:48:00.891Z,-0.74
2017-01-17T01:49:15.193Z,-0.71
2017-01-17T01:50:28.808Z,-0.69
2017-01-17T01:51:42.504Z,-0.67
2017-01-17T01:52:55.950Z,-0.68
2017-01-17T01:54:09.369Z,-0.71
2017-01-17T01:55:22.898Z,-0.74
2017-01-17T01:56:36.460Z,-0.75
2017-01-17T01:57:50.190Z,-0.73
2017-01-17T01:59:03.633Z,-0.72
2017-01-17T02:00:17.134Z,-0.7
2017-01-17T02:01:30.579Z,-0.72
2017-01-17T02:02:44.041Z,-0.74
2017-01-17T02:03:57.810Z,-0.75
2017-01-17T02:05:11.363Z,-0.76
2017-01-17T02:06:24.811Z,-0.77
2017-01-17T02:07:38.229Z,-0.72
2017-01-17T02:08:51.634Z,-0.7
2017-01-17T02:10:05.378Z,-0.74
2017-01-17T02:11:18.971Z,-0.75
2017-01-17T02:12:32.389Z,-0.74
2017-01-17T02:13:45.847Z,-0.7
2017-01-17T02:14:59.297Z,-0.64
2017-01-17T02:16:13.192Z,-0.63
2017-01-17T02:17:26.650Z,-0.67
2017-01-17T02:18:40.082Z,-0.67
2017-01-17T02:19:53.527Z,-0.69
2017-01-17T02:21:07.079Z,-0.73
2017-01-17T02:22:20.823Z,-0.75
2017-01-17T02:23:34.283Z,-0.74
2017-01-17T02:24:47.811Z,-0.71
2017-01-17T02:26:01.267Z,-0.69
2017-01-17T02:27:14.799Z,-0.67
2017-01-17T02:28:28.500Z,-0.64
2017-01-17T02:29:41.889Z,-0.64
2017-01-17T02:30:55.331Z,-0.62
2017-01-17T02:32:10.058Z,-0.61
2017-01-17T02:33:23.471Z,-0.59
2017-01-17T02:34:37.226Z,-0.56
2017-01-17T02:35:50.663Z,-0.54
2017-01-17T02:37:04.182Z,-0.47
2017-01-17T02:38:17.609Z,-0.42
2017-01-17T02:39:31.013Z,-0.37
2017-01-17T02:40:44.706Z,-0.32
2017-01-17T02:41:58.117Z,-0.34
2017-01-17T02:43:13.818Z,-0.38
2017-01-17T02:44:27.247Z,-0.39
2017-01-17T02:45:40.690Z,-0.39
2017-01-17T02:46:54.409Z,-0.41
2017-01-17T02:48:08.380Z,-0.37
2017-01-17T02:49:22.227Z,-0.36
2017-01-17T02:50:35.695Z,-0.38
2017-01-17T02:51:49.161Z,-0.35
2017-01-17T02:53:02.967Z,-0.33
2017-01-17T02:54:16.400Z,-0.33
2017-01-17T02:55:29.999Z,-0.34
2017-01-17T02:56:43.869Z,-0.29
2017-01-17T02:57:57.327Z,-0.26
2017-01-17T02:59:30.320Z,-0.2
2017-01-17T03:00:43.740Z,-0.1
2017-01-17T03:01:57.171Z,-0.07
2017-01-17T03:03:10.744Z,-0.05
2017-01-17T03:04:24.485Z,-0.06
2017-01-17T03:05:37.911Z,-0.04
2017-01-17T03:06:51.379Z,-0.02
2017-01-17T03:08:04.802Z,0.03
2017-01-17T03:09:18.336Z,0.04
2017-01-17T03:10:32.048Z,0.04
2017-01-17T03:11:45.447Z,0.04
2017-01-17T03:12:58.879Z,0.03
2017-01-17T03:14:12.395Z,0.05
2017-01-17T03:15:25.814Z,0.05
2017-01-17T03:16:39.560Z,0.03
2017-01-17T03:17:53.028Z,0.03
2017-01-17T03:19:06.558Z,0.04
2017-01-17T03:20:20.018Z,0.05
2017-01-17T03:21:33.446Z,0.08
2017-01-17T03:22:47.191Z,0.09
2017-01-17T03:24:00.994Z,0.08
2017-01-17T03:25:14.487Z,0.06
2017-01-17T03:26:27.927Z,0.02
2017-01-17T03:27:41.345Z,0.03
2017-01-17T03:28:55.053Z,0.01
2017-01-17T03:30:09.772Z,0.03
2017-01-17T03:31:23.154Z,0.05
2017-01-17T03:32:37.046Z,0.05
2017-01-17T03:33:50.642Z,0.07
2017-01-17T03:35:04.540Z,0.08
2017-01-17T03:36:18.377Z,0.11
2017-01-17T03:37:38.072Z,0.11
2017-01-17T03:38:51.895Z,0.07
2017-01-17T03:40:05.385Z,0.05
2017-01-17T03:41:19.123Z,0.04
2017-01-17T03:42:32.582Z,0.03
2017-01-17T03:43:45.985Z,0.07
2017-01-17T03:44:59.813Z,0.07
2017-01-17T03:46:13.707Z,0.06
2017-01-17T03:47:27.371Z,0.08
2017-01-17T03:48:40.783Z,0.12
2017-01-17T03:49:54.192Z,0.13
2017-01-17T03:51:07.734Z,0.09
2017-01-17T03:52:21.229Z,0.08
2017-01-17T03:53:34.911Z,0.08
2017-01-17T03:54:48.381Z,0.11
2017-01-17T03:56:03.112Z,0.09
2017-01-17T03:57:16.558Z,0.06
2017-01-17T03:58:30.106Z,0.01
2017-01-17T03:59:46.013Z,-0.04
2017-01-17T04:00:59.556Z,-0.1
2017-01-17T04:02:13.021Z,-0.13
2017-01-17T04:03:26.907Z,-0.13
2017-01-17T04:04:40.339Z,-0.11
2017-01-17T04:05:54.067Z,-0.06
2017-01-17T04:07:07.614Z,-0.05
2017-01-17T04:08:21.047Z,-0.01
2017-01-17T04:09:35.353Z,-0.02
2017-01-17T04:10:48.781Z,-0.03
2017-01-17T04:12:02.600Z,-0.03
2017-01-17T04:13:16.050Z,-0.06
2017-01-17T04:14:29.488Z,-0.06
2017-01-17T04:15:42.931Z,-0.05
2017-01-17T04:16:56.818Z,-0.07
2017-01-17T04:18:10.801Z,-0.1
2017-01-17T04:19:24.203Z,-0.13
2017-01-17T04:20:37.654Z,-0.11
2017-01-17T04:21:51.060Z,-0.12
2017-01-17T04:23:04.618Z,-0.11
2017-01-17T04:24:18.367Z,-0.12
2017-01-17T04:25:31.939Z,-0.1
2017-01-17T04:26:45.343Z,-0.07
2017-01-17T04:27:58.894Z,-0.08
2017-01-17T04:29:12.747Z,-0.08
2017-01-17T04:30:26.512Z,-0.04
2017-01-17T04:31:40.052Z,-0.03
2017-01-17T04:32:59.970Z,-0.03
2017-01-17T04:34:13.833Z,-0.04
2017-01-17T04:35:27.230Z,-0.01
2017-01-17T04:36:40.996Z,0.02
2017-01-17T04:38:00.795Z,0.07
2017-01-17T04:39:14.400Z,0.11
2017-01-17T04:40:27.808Z,0.11
2017-01-17T04:41:41.236Z,0.08
2017-01-17T04:42:54.938Z,0.11
2017-01-17T04:44:08.456Z,0.13
2017-01-17T04:45:21.895Z,0.15
2017-01-17T04:46:35.335Z,0.16
2017-01-17T04:47:48.780Z,0.18
2017-01-17T04:49:02.810Z,0.15
2017-01-17T04:50:16.408Z,0.18
2017-01-17T04:51:29.834Z,0.21
2017-01-17T04:52:43.297Z,0.22
2017-01-17T04:53:57.163Z,0.21
2017-01-17T04:55:10.999Z,0.2
2017-01-17T04:56:24.423Z,0.17
2017-01-17T04:57:37.903Z,0.14
2017-01-17T04:58:51.362Z,0.21
2017-01-17T05:00:06.073Z,0.29
2017-01-17T05:01:19.775Z,0.34
2017-01-17T05:02:33.617Z,0.33
2017-01-17T05:03:47.084Z,0.33
2017-01-17T05:05:00.630Z,0.35
2017-01-17T05:06:14.500Z,0.38
2017-01-17T05:07:28.219Z,0.39
2017-01-17T05:08:41.668Z,0.39
2017-01-17T05:09:55.149Z,0.35
2017-01-17T05:11:09.887Z,0.35
2017-01-17T05:12:23.312Z,0.34
2017-01-17T05:13:37.067Z,0.34
2017-01-17T05:14:50.588Z,0.31
2017-01-17T05:16:07.537Z,0.29
2017-01-17T05:17:20.979Z,0.27
2017-01-17T05:18:34.424Z,0.27
2017-01-17T05:19:48.132Z,0.23
2017-01-17T05:21:01.703Z,0.22
2017-01-17T05:22:15.681Z,0.2
2017-01-17T05:23:29.148Z,0.23
2017-01-17T05:24:42.564Z,0.24
2017-01-17T05:25:56.699Z,0.28
2017-01-17T05:27:10.379Z,0.46
2017-01-17T05:28:23.805Z,0.65
2017-01-17T05:29:37.274Z,0.77
2017-01-17T05:30:50.706Z,0.91
2017-01-17T05:32:04.935Z,1.06
2017-01-17T05:33:18.391Z,1.18
2017-01-17T05:34:31.794Z,1.17
2017-01-17T05:35:45.229Z,1.15
2017-01-17T05:36:58.751Z,1.06
2017-01-17T05:38:12.460Z,0.99
2017-01-17T05:39:25.924Z,0.95
2017-01-17T05:40:39.341Z,0.94
2017-01-17T05:41:52.984Z,0.88
2017-01-17T05:43:06.911Z,0.81
2017-01-17T05:44:20.628Z,0.72
2017-01-17T05:45:34.479Z,0.63
2017-01-17T05:46:47.919Z,0.59
2017-01-17T05:48:02.645Z,0.52
2017-01-17T05:49:16.082Z,0.51
2017-01-17T05:50:29.804Z,0.52
2017-01-17T05:51:44.083Z,0.48
2017-01-17T05:52:57.769Z,0.42
2017-01-17T05:54:12.222Z,0.38
2017-01-17T05:55:25.646Z,0.4
2017-01-17T05:56:40.223Z,0.42
2017-01-17T05:57:53.680Z,0.45
2017-01-17T05:59:07.380Z,0.46
2017-01-17T06:00:20.781Z,0.5
2017-01-17T06:01:34.716Z,0.54
2017-01-17T06:02:48.834Z,0.57
2017-01-17T06:04:02.806Z,0.56
2017-01-17T06:05:16.295Z,0.55
2017-01-17T06:06:29.785Z,0.5
2017-01-17T06:07:43.529Z,0.46
2017-01-17T06:08:59.010Z,0.45
2017-01-17T06:10:12.447Z,0.47
2017-01-17T06:11:26.083Z,0.44
2017-01-17T06:12:39.568Z,0.44
2017-01-17T06:13:53.121Z,0.45
2017-01-17T06:15:06.894Z,0.48
2017-01-17T06:16:20.366Z,0.49
2017-01-17T06:17:33.874Z,0.49
2017-01-17T06:18:47.430Z,0.51
2017-01-17T06:20:01.030Z,0.54
2017-01-17T06:21:15.874Z,0.55
2017-01-17T06:22:29.428Z,0.57
2017-01-17T06:23:42.893Z,0.56
2017-01-17T06:24:56.502Z,0.53
2017-01-17T06:26:10.015Z,0.51
2017-01-17T06:27:23.924Z,0.51
2017-01-17T06:28:37.383Z,0.52
2017-01-17T06:29:51.020Z,0.52
2017-01-17T06:31:04.503Z,0.5
2017-01-17T06:32:20.185Z,0.53
2017-01-17T06:33:34.052Z,0.49
2017-01-17T06:34:47.571Z,0.51
2017-01-17T06:36:01.047Z,0.53
2017-01-17T06:37:14.493Z,0.54
2017-01-17T06:38:27.996Z,0.55
2017-01-17T06:39:41.721Z,0.54
2017-01-17T06:40:56.525Z,0.52
2017-01-17T06:42:10.091Z,0.5
2017-01-17T06:43:23.589Z,0.5
2017-01-17T06:44:37.186Z,0.47
2017-01-17T06:45:52.816Z,0.47
2017-01-17T06:47:06.348Z,0.47
2017-01-17T06:48:19.934Z,0.47
2017-01-17T06:49:33.367Z,0.48
2017-01-17T06:50:46.845Z,0.52
2017-01-17T06:52:01.397Z,0.52
2017-01-17T06:53:14.964Z,0.5
2017-01-17T06:54:28.405Z,0.47
2017-01-17T06:55:41.826Z,0.48
2017-01-17T06:56:55.374Z,0.45
2017-01-17T06:58:09.080Z,0.42
2017-01-17T06:59:23.766Z,0.43
2017-01-17T07:00:37.618Z,0.43
2017-01-17T07:01:51.175Z,0.43
2017-01-17T07:03:04.577Z,0.41
2017-01-17T07:04:18.329Z,0.42
2017-01-17T07:05:31.756Z,0.43
2017-01-17T07:06:45.184Z,0.47
2017-01-17T07:07:58.739Z,0.47
2017-01-17T07:09:12.590Z,0.47
2017-01-17T07:10:31.348Z,0.47
2017-01-17T07:11:45.205Z,0.48
2017-01-17T07:12:58.746Z,0.49
2017-01-17T07:14:12.210Z,0.49
2017-01-17T07:15:25.648Z,0.5
2017-01-17T07:16:39.829Z,0.49
2017-01-17T07:17:53.354Z,0.46
2017-01-17T07:19:06.830Z,0.46
2017-01-17T07:20:20.694Z,0.51
2017-01-17T07:21:34.139Z,0.52
2017-01-17T07:22:48.211Z,0.54
2017-01-17T07:24:01.691Z,0.55
2017-01-17T07:25:15.159Z,0.56
2017-01-17T07:26:28.629Z,0.57
2017-01-17T07:27:42.090Z,0.56
2017-01-17T07:28:55.917Z,0.57
2017-01-17T07:30:09.370Z,0.57
2017-01-17T07:31:22.845Z,0.58
2017-01-17T07:32:36.701Z,0.61
2017-01-17T07:33:50.711Z,0.62
2017-01-17T07:35:04.945Z,0.61
2017-01-17T07:36:18.432Z,0.58
2017-01-17T07:37:32.560Z,0.56
2017-01-17T07:38:46.106Z,0.53
2017-01-17T07:39:59.960Z,0.47
2017-01-17T07:41:13.688Z,0.46
2017-01-17T07:42:27.544Z,0.47
2017-01-17T07:43:41.021Z,0.47
2017-01-17T07:44:54.644Z,0.52
2017-01-17T07:46:08.128Z,0.56
2017-01-17T07:47:32.183Z,0.55
2017-01-17T07:48:48.388Z,0.53
2017-01-17T07:50:02.034Z,0.54
2017-01-17T07:51:15.988Z,0.52
2017-01-17T07:52:30.232Z,0.51
2017-01-17T07:53:44.074Z,0.51
2017-01-17T07:54:57.588Z,0.55
2017-01-17T07:56:11.196Z,0.61
2017-01-17T07:57:37.445Z,0.63
2017-01-17T07:58:51.282Z,0.63
2017-01-17T08:00:04.709Z,0.63
2017-01-17T08:01:18.514Z,0.65
2017-01-17T08:02:32.044Z,0.65
2017-01-17T08:03:45.526Z,0.66
2017-01-17T08:04:59.486Z,0.69
2017-01-17T08:06:12.917Z,0.73
2017-01-17T08:07:26.376Z,0.76
2017-01-17T08:08:39.903Z,0.81
2017-01-17T08:09:53.525Z,0.81
2017-01-17T08:11:07.345Z,0.79
2017-01-17T08:12:20.835Z,0.77
2017-01-17T08:13:34.898Z,0.78
2017-01-17T08:14:49.289Z,0.79
2017-01-17T08:16:03.188Z,0.85
2017-01-17T08:17:17.814Z,0.9
2017-01-17T08:18:31.972Z,0.92
2017-01-17T08:19:48.375Z,0.94
2017-01-17T08:21:02.114Z,0.95
2017-01-17T08:22:16.643Z,0.95
2017-01-17T08:23:30.419Z,0.91
2017-01-17T08:24:43.956Z,0.92
2017-01-17T08:25:57.532Z,0.91
2017-01-17T08:27:11.387Z,0.94
2017-01-17T08:28:25.564Z,0.97
2017-01-17T08:29:39.370Z,0.97
2017-01-17T08:30:52.994Z,0.98
2017-01-17T08:32:06.430Z,0.95
2017-01-17T08:33:19.930Z,0.97
2017-01-17T08:34:33.404Z,0.95
2017-01-17T08:35:47.268Z,0.92
2017-01-17T08:37:00.704Z,0.85
2017-01-17T08:38:14.233Z,0.81
2017-01-17T08:39:27.836Z,0.84
2017-01-17T08:40:41.313Z,0.9
2017-01-17T08:41:56.371Z,0.95
2017-01-17T08:43:10.234Z,0.95
2017-01-17T08:44:23.740Z,0.93
2017-01-17T08:45:37.271Z,0.94
2017-01-17T08:46:50.785Z,0.98
2017-01-17T08:48:04.630Z,1
2017-01-17T08:49:18.109Z,1.02
2017-01-17T08:50:31.650Z,1.01
2017-01-17T08:51:45.265Z,1
2017-01-17T08:52:58.914Z,1.02
2017-01-17T08:54:12.949Z,1.02
2017-01-17T08:55:27.674Z,1.02
2017-01-17T08:56:41.293Z,1.01
2017-01-17T08:57:54.758Z,1.01
2017-01-17T08:59:08.205Z,0.98
2017-01-17T09:00:21.962Z,0.98
2017-01-17T09:01:35.393Z,1
2017-01-17T09:02:50.052Z,1
2017-01-17T09:04:03.509Z,0.99
2017-01-17T09:05:19.177Z,1.03
2017-01-17T09:06:34.775Z,1.09
2017-01-17T09:07:50.460Z,1.11
2017-01-17T09:09:09.173Z,1.15
2017-01-17T09:10:27.680Z,1.2
2017-01-17T09:11:50.638Z,1.25
2017-01-17T09:13:09.575Z,1.32
2017-01-17T09:14:27.407Z,1.35
2017-01-17T09:15:41.664Z,1.39
2017-01-17T09:16:57.391Z,1.46
2017-01-17T09:18:13.061Z,1.54
2017-01-17T09:19:27.148Z,1.55
2017-01-17T09:20:40.947Z,1.53
2017-01-17T09:21:57.349Z,1.49
2017-01-17T09:23:11.646Z,1.52
2017-01-17T09:24:25.800Z,1.51
2017-01-17T09:25:40.306Z,1.56
2017-01-17T09:26:58.149Z,1.56
2017-01-17T09:28:12.079Z,1.6
2017-01-17T09:29:26.381Z,1.62
2017-01-17T09:30:41.051Z,1.64
2017-01-17T09:31:55.337Z,1.59
2017-01-17T09:33:12.177Z,1.57
2017-01-17T09:34:31.518Z,1.49
2017-01-17T09:35:49.791Z,1.43
2017-01-17T09:37:04.546Z,1.37
2017-01-17T09:38:22.194Z,1.3
2017-01-17T09:39:37.135Z,1.3
2017-01-17T09:40:51.247Z,1.31
2017-01-17T09:42:07.736Z,1.25
2017-01-17T09:43:22.410Z,1.23
2017-01-17T09:44:38.442Z,1.24
2017-01-17T09:45:52.428Z,1.21
2017-01-17T09:47:06.439Z,1.17
2017-01-17T09:48:20.948Z,1.17
2017-01-17T09:49:35.266Z,1.18
2017-01-17T09:50:49.124Z,1.16
2017-01-17T09:52:02.815Z,1.2
2017-01-17T09:53:17.564Z,1.26
2017-01-17T09:54:31.661Z,1.3
2017-01-17T09:55:47.537Z,1.3
2017-01-17T09:57:01.357Z,1.28
2017-01-17T09:58:16.432Z,1.3
2017-01-17T09:59:31.421Z,1.31
2017-01-17T10:00:44.897Z,1.35
2017-01-17T10:01:58.307Z,1.34
2017-01-17T10:03:12.655Z,1.37
2017-01-17T10:04:26.492Z,1.39
2017-01-17T10:05:39.924Z,1.39
2017-01-17T10:06:53.362Z,1.43
2017-01-17T10:08:06.806Z,1.52
2017-01-17T10:09:20.568Z,1.56
2017-01-17T10:10:33.993Z,1.62
2017-01-17T10:11:47.891Z,1.68
2017-01-17T10:13:01.345Z,1.71
2017-01-17T10:14:15.197Z,1.77
2017-01-17T10:15:30.108Z,1.83
2017-01-17T10:16:44.316Z,1.92
2017-01-17T10:17:58.220Z,1.97
2017-01-17T10:19:12.934Z,2.01
2017-01-17T10:20:26.607Z,2.05
2017-01-17T10:21:40.396Z,2.1
2017-01-17T10:22:56.396Z,2.13
2017-01-17T10:24:12.787Z,2.2
2017-01-17T10:25:26.345Z,2.21
2017-01-17T10:26:40.059Z,2.22
2017-01-17T10:27:54.295Z,2.26
2017-01-17T10:29:07.884Z,2.29
2017-01-17T10:30:21.783Z,2.32
2017-01-17T10:31:35.256Z,2.4
2017-01-17T10:32:50.488Z,2.49
2017-01-17T10:34:04.243Z,2.51
2017-01-17T10:35:18.440Z,2.52
2017-01-17T10:36:32.673Z,2.49
2017-01-17T10:37:46.192Z,2.43
2017-01-17T10:38:59.783Z,2.37
2017-01-17T10:40:14.862Z,2.38
2017-01-17T10:41:28.288Z,2.42
2017-01-17T10:42:42.190Z,2.47
2017-01-17T10:43:55.629Z,2.54
2017-01-17T10:45:09.099Z,2.57
2017-01-17T10:46:22.941Z,2.54
2017-01-17T10:47:36.425Z,2.52
2017-01-17T10:48:50.339Z,2.51
2017-01-17T10:50:03.784Z,2.48
2017-01-17T10:51:17.820Z,2.46
2017-01-17T10:52:31.989Z,2.41
2017-01-17T10:53:45.428Z,2.37
2017-01-17T10:54:58.864Z,2.35
2017-01-17T10:56:12.398Z,2.31
2017-01-17T10:57:25.901Z,2.28
2017-01-17T10:58:39.642Z,2.28
2017-01-17T10:59:53.173Z,2.24
2017-01-17T11:01:06.771Z,2.26
2017-01-17T11:02:20.289Z,2.23
2017-01-17T11:03:33.757Z,2.19
2017-01-17T11:04:47.524Z,2.19
2017-01-17T11:06:01.145Z,2.21
2017-01-17T11:07:14.670Z,2.25
2017-01-17T11:08:28.118Z,2.22
2017-01-17T11:09:41.847Z,2.18
2017-01-17T11:10:56.053Z,2.17
2017-01-17T11:12:10.777Z,2.21
2017-01-17T11:13:24.643Z,2.22
2017-01-17T11:14:38.105Z,2.21
2017-01-17T11:15:51.584Z,2.22
2017-01-17T11:17:05.312Z,2.18
2017-01-17T11:18:19.243Z,2.18
2017-01-17T11:19:32.731Z,2.15
2017-01-17T11:20:46.223Z,2.11
2017-01-17T11:21:59.644Z,2.06
2017-01-17T11:23:14.587Z,2.06
2017-01-17T11:24:28.786Z,2.06
2017-01-17T11:25:42.347Z,2.11
2017-01-17T11:26:55.973Z,2.16
2017-01-17T11:28:10.645Z,2.19
2017-01-17T11:29:24.801Z,2.19
2017-01-17T11:30:38.404Z,2.22
2017-01-17T11:31:51.894Z,2.22
2017-01-17T11:33:05.355Z,2.2
2017-01-17T11:34:18.831Z,2.18
2017-01-17T11:35:32.952Z,2.11
2017-01-17T11:36:46.383Z,2.1
2017-01-17T11:38:00.253Z,2.07
2017-01-17T11:39:15.874Z,2.06
2017-01-17T11:40:29.355Z,2.08
2017-01-17T11:41:43.060Z,2.05
2017-01-17T11:42:56.902Z,2.05
2017-01-17T11:44:10.326Z,2
2017-01-17T11:45:23.809Z,1.95
2017-01-17T11:46:37.316Z,1.96
2017-01-17T11:47:51.062Z,2.01
2017-01-17T11:49:04.530Z,2.03
2017-01-17T11:50:18.126Z,2.09
2017-01-17T11:51:32.811Z,2.13
2017-01-17T11:52:46.273Z,2.13
2017-01-17T11:54:00.000Z,2.14
2017-01-17T11:55:13.464Z,2.13
2017-01-17T11:56:26.990Z,2.11
2017-01-17T11:57:40.872Z,2.12
2017-01-17T11:58:54.354Z,2.09
2017-01-17T12:00:08.076Z,2.07
2017-01-17T12:01:21.938Z,2.08
2017-01-17T12:02:36.664Z,2.11
2017-01-17T12:03:50.171Z,2.17
2017-01-17T12:05:04.497Z,2.18
2017-01-17T12:06:18.249Z,2.2
2017-01-17T12:07:31.707Z,2.19
2017-01-17T12:08:45.185Z,2.19
2017-01-17T12:09:58.707Z,2.21
2017-01-17T12:11:12.145Z,2.23
2017-01-17T12:12:25.895Z,2.3
2017-01-17T12:13:39.383Z,2.31
2017-01-17T12:14:52.846Z,2.31
2017-01-17T12:16:06.346Z,2.3
2017-01-17T12:17:19.811Z,2.3
2017-01-17T12:18:33.995Z,2.3
2017-01-17T12:19:47.421Z,2.34
2017-01-17T12:21:00.864Z,2.33
2017-01-17T12:22:14.665Z,2.27
2017-01-17T12:23:28.112Z,2.25
2017-01-17T12:24:42.274Z,2.25
2017-01-17T12:25:55.707Z,2.23
2017-01-17T12:27:09.168Z,2.29
2017-01-17T12:28:22.691Z,2.34
2017-01-17T12:29:36.369Z,2.35
2017-01-17T12:30:50.116Z,2.35
2017-01-17T12:32:04.018Z,2.34
2017-01-17T12:33:17.474Z,2.32
2017-01-17T12:34:30.988Z,2.35
2017-01-17T12:35:44.559Z,2.37
2017-01-17T12:36:58.302Z,2.4
2017-01-17T12:38:11.748Z,2.39
2017-01-17T12:39:25.248Z,2.44
2017-01-17T12:40:38.711Z,2.5
2017-01-17T12:41:52.175Z,2.49
2017-01-17T12:43:06.085Z,2.48
2017-01-17T12:44:20.021Z,2.48
2017-01-17T12:45:33.556Z,2.52
2017-01-17T12:46:47.030Z,2.54
2017-01-17T12:48:00.466Z,2.58
2017-01-17T12:49:14.206Z,2.62
2017-01-17T12:50:27.673Z,2.66
2017-01-17T12:51:41.562Z,2.64
2017-01-17T12:52:55.050Z,2.64
2017-01-17T12:54:08.508Z,2.62
2017-01-17T12:55:24.608Z,2.61
2017-01-17T12:56:38.064Z,2.66
2017-01-17T12:57:51.525Z,2.7
2017-01-17T12:59:04.992Z,2.67
2017-01-17T13:00:18.507Z,2.67
2017-01-17T13:01:32.259Z,2.66
2017-01-17T13:02:45.754Z,2.64
2017-01-17T13:03:59.615Z,2.63
2017-01-17T13:05:13.437Z,2.62
2017-01-17T13:06:28.423Z,2.64
2017-01-17T13:07:42.174Z,2.67
2017-01-17T13:08:55.636Z,2.72
2017-01-17T13:10:09.121Z,2.78
2017-01-17T13:11:23.039Z,2.81
2017-01-17T13:12:36.511Z,2.83
2017-01-17T13:13:50.254Z,2.9
2017-01-17T13:15:03.689Z,2.91
2017-01-17T13:16:17.220Z,2.94
2017-01-17T13:17:31.050Z,2.96
2017-01-17T13:18:44.548Z,2.96
2017-01-17T13:19:58.268Z,2.93
2017-01-17T13:21:14.938Z,2.97
2017-01-17T13:22:41.111Z,3.05
2017-01-17T13:23:54.601Z,3.12
2017-01-17T13:25:08.145Z,3.1
2017-01-17T13:26:21.978Z,3.08
2017-01-17T13:27:35.454Z,3.03
2017-01-17T13:28:49.409Z,3.02
2017-01-17T13:30:02.887Z,3.04
2017-01-17T13:31:16.771Z,3.07
2017-01-17T13:32:31.744Z,3.05
2017-01-17T13:33:45.205Z,3.03
2017-01-17T13:34:58.691Z,3.02
2017-01-17T13:36:12.592Z,3.03
2017-01-17T13:37:26.150Z,3.02
2017-01-17T13:38:39.924Z,2.95
2017-01-17T13:39:53.374Z,2.95
2017-01-17T13:41:07.677Z,2.97
2017-01-17T13:42:21.182Z,2.97
2017-01-17T13:43:34.617Z,2.94
2017-01-17T13:44:48.437Z,2.93
2017-01-17T13:46:02.120Z,2.86
2017-01-17T13:47:15.640Z,2.79
2017-01-17T13:48:29.128Z,2.77
2017-01-17T13:49:42.604Z,2.76
2017-01-17T13:50:56.372Z,2.75
2017-01-17T13:52:09.883Z,2.72
2017-01-17T13:53:23.624Z,2.69
2017-01-17T13:54:37.091Z,2.67
2017-01-17T13:55:50.971Z,2.71
2017-01-17T13:57:04.776Z,2.76
2017-01-17T13:58:18.326Z,2.74
2017-01-17T13:59:32.223Z,2.75
2017-01-17T14:00:45.738Z,2.75
2017-01-17T14:01:59.282Z,2.78
2017-01-17T14:03:13.025Z,2.76
2017-01-17T14:04:26.577Z,2.78
2017-01-17T14:05:40.023Z,2.84
2017-01-17T14:06:53.458Z,2.88
2017-01-17T14:08:06.975Z,2.85
2017-01-17T14:09:20.811Z,2.87
2017-01-17T14:10:34.277Z,2.86
2017-01-17T14:11:49.928Z,2.87
2017-01-17T14:13:03.458Z,2.83
2017-01-17T14:14:17.518Z,2.82
2017-01-17T14:15:31.758Z,2.78
2017-01-17T14:16:45.627Z,2.73
2017-01-17T14:17:59.084Z,2.72
2017-01-17T14:19:12.521Z,2.67
2017-01-17T14:20:26.350Z,2.63
2017-01-17T14:21:40.141Z,2.61
2017-01-17T14:22:54.003Z,2.63
2017-01-17T14:24:07.892Z,2.66
2017-01-17T14:25:21.690Z,2.73
2017-01-17T14:26:35.159Z,2.76
2017-01-17T14:27:48.933Z,2.74
2017-01-17T14:29:02.821Z,2.73
2017-01-17T14:30:16.324Z,2.69
2017-01-17T14:31:29.788Z,2.66
2017-01-17T14:32:43.267Z,2.63
2017-01-17T14:33:57.023Z,2.6
2017-01-17T14:35:10.482Z,2.59
2017-01-17T14:36:23.989Z,2.59
2017-01-17T14:37:37.448Z,2.57
2017-01-17T14:38:50.897Z,2.52
2017-01-17T14:40:04.694Z,2.47
2017-01-17T14:41:18.233Z,2.45
2017-01-17T14:42:31.650Z,2.45
2017-01-17T14:43:45.135Z,2.45
2017-01-17T14:44:58.608Z,2.47
2017-01-17T14:46:12.415Z,2.46
2017-01-17T14:47:26.299Z,2.43
2017-01-17T14:48:39.750Z,2.42
2017-01-17T14:49:53.197Z,2.41
2017-01-17T14:51:06.696Z,2.39
2017-01-17T14:52:20.490Z,2.37
2017-01-17T14:53:33.954Z,2.34
2017-01-17T14:54:47.501Z,2.31
2017-01-17T14:56:01.409Z,2.29
2017-01-17T14:57:15.374Z,2.3
2017-01-17T14:58:29.145Z,2.29
2017-01-17T14:59:42.688Z,2.28
2017-01-17T15:00:56.170Z,2.26
2017-01-17T15:02:09.716Z,2.24
2017-01-17T15:03:23.227Z,2.24
2017-01-17T15:04:37.207Z,2.28
2017-01-17T15:05:51.270Z,2.27
2017-01-17T15:07:04.790Z,2.23
2017-01-17T15:08:18.301Z,2.21
2017-01-17T15:09:31.763Z,2.19
2017-01-17T15:10:45.529Z,2.17
2017-01-17T15:11:58.962Z,2.17
2017-01-17T15:13:12.514Z,2.18
2017-01-17T15:14:25.973Z,2.2
2017-01-17T15:15:39.511Z,2.17
2017-01-17T15:16:53.340Z,2.16
2017-01-17T15:18:06.862Z,2.12
2017-01-17T15:19:20.260Z,2.11
2017-01-17T15:20:33.690Z,2.11
2017-01-17T15:21:47.203Z,2.11
2017-01-17T15:23:00.974Z,2.05
2017-01-17T15:24:14.481Z,2.03
2017-01-17T15:25:27.992Z,2.03
2017-01-17T15:26:41.624Z,1.99
2017-01-17T15:27:57.340Z,1.99
2017-01-17T15:29:11.303Z,2
2017-01-17T15:30:24.785Z,1.99
2017-01-17T15:31:38.243Z,1.92
2017-01-17T15:32:51.672Z,1.89
2017-01-17T15:34:05.235Z,1.87
2017-01-17T15:35:19.030Z,1.83
2017-01-17T15:36:32.516Z,1.81
2017-01-17T15:37:45.962Z,1.8
2017-01-17T15:38:59.575Z,1.75
2017-01-17T15:40:13.258Z,1.71
2017-01-17T15:41:27.450Z,1.66
2017-01-17T15:42:40.970Z,1.64
2017-01-17T15:43:54.403Z,1.65
2017-01-17T15:45:08.234Z,1.68
2017-01-17T15:46:21.942Z,1.68
2017-01-17T15:47:35.700Z,1.64
2017-01-17T15:48:49.179Z,1.58
2017-01-17T15:50:02.772Z,1.54
2017-01-17T15:51:16.394Z,1.53
2017-01-17T15:52:30.762Z,1.51
2017-01-17T15:53:44.762Z,1.49
2017-01-17T15:54:59.736Z,1.46
2017-01-17T15:56:17.883Z,1.43
2017-01-17T15:57:31.327Z,1.4
2017-01-17T15:58:44.803Z,1.41
2017-01-17T15:59:58.791Z,1.37
2017-01-17T16:01:13.592Z,1.37
2017-01-17T16:02:27.086Z,1.37
2017-01-17T16:03:40.610Z,1.38
2017-01-17T16:04:54.728Z,1.39
2017-01-17T16:06:08.908Z,1.38
2017-01-17T16:07:22.518Z,1.35
2017-01-17T16:08:36.461Z,1.32
2017-01-17T16:09:50.219Z,1.28
2017-01-17T16:11:05.366Z,1.26
2017-01-17T16:12:19.185Z,1.28
2017-01-17T16:13:32.776Z,1.27
2017-01-17T16:14:46.355Z,1.25
2017-01-17T16:15:59.943Z,1.23
2017-01-17T16:17:13.578Z,1.2
2017-01-17T16:18:27.492Z,1.2
2017-01-17T16:19:41.765Z,1.18
2017-01-17T16:20:55.370Z,1.22